Terminal Aerodrome Forecast
Issued by NWS Twin Cities, MN

Home | Current Version | Previous Version | Text Only | Print | Product List | Glossary On
Versions: 1 2 3 4 5 6 7 8 9 10 11 12 13 14 15 16 17 18
982
FTUS43 KMPX 261124
TAFEAU
TAF
KEAU 261124Z 2612/2712 29010KT 6SM SHRA VCTS SCT020 OVC050CB
     FM261300 25005KT P6SM VCSH FEW020 BKN040 OVC120
     FM261800 26005KT P6SM SCT030 BKN120
     FM270000 VRB03KT P6SM FEW050=

USA.gov is the U.S. government's official web portal to all federal, state and local government web resources and services.